»·PEaware :: GTI915 KCVG-CYHM

GTI915 :: KCVG-CYHM

FLIGHT INFORMATION

Flight Status: Arrived
Operator:
Atlas Air
More flights by this operator :: More flights under this callsign
Pilot: Will D. (10979)
Aircraft: BOEING 767-300
(B763)
More flights by this aircraft type
Origin: KCVG Cincinnati/Northern Ky Intl
United States
Destination: CYHM Hamilton
Canada
More flights between these airports :: More routes between these airports
Route: BNGLE4 DJB YQO AVSOX AVSOX2
File this flight plan on PilotEdge
Remarks:
Altitude:
(Current/Filed)
37,000ft
Speed:
(Current/Filed)
477kts
Departed: 18-Apr-18 12:18 PM
Arrived: 18-Apr-18 01:11 PM
Distance/Time
Traveled:
327nm/0:53
Distance/Time
To Go:
Arrived

Flight Plot

Page will automatically refresh every two minutes.

Flight plan parsing failed; only flown route is shown


Map Options




Map Legend


Flown Route
Filed Route
Departure Airport
Arrival Airport
Navaid (VOR, NDB)
Fix

Horizontal Profiles

Position Reports

Time Latitude Longitude Heading Altitude Ground
Speed
18-Apr-18 12:16 39.028541 -84.648319 91 900ft 4kts
18-Apr-18 12:17 39.032012 -84.646786 359 894ft 79kts
18-Apr-18 12:18 39.077096 -84.646685 358 2424ft 203kts
18-Apr-18 12:19 39.146005 -84.646556 0 4987ft 280kts
18-Apr-18 12:20 39.217990 -84.609653 20 8990ft 300kts
18-Apr-18 12:21 39.299230 -84.561052 20 11514ft 375kts
18-Apr-18 12:22 39.397257 -84.501771 19 15191ft 408kts
18-Apr-18 12:23 39.501262 -84.438769 18 18743ft 429kts
18-Apr-18 12:24 39.604361 -84.353503 32 21862ft 459kts
18-Apr-18 12:25 39.670406 -84.286202 32 23695ft 472kts
18-Apr-18 12:26 39.696082 -84.259908 32 24377ft 476kts
18-Apr-18 12:27 39.749027 -84.205584 32 25678ft 485kts
18-Apr-18 12:28 39.845781 -84.102364 37 27842ft 504kts
18-Apr-18 12:29 39.946549 -83.977388 36 29959ft 520kts
18-Apr-18 12:30 40.050719 -83.847216 36 32072ft 530kts
18-Apr-18 12:31 40.142491 -83.732006 35 34271ft 524kts
18-Apr-18 12:32 40.244515 -83.603469 35 36307ft 519kts
18-Apr-18 12:33 40.347892 -83.472610 35 36828ft 518kts
18-Apr-18 12:34 40.448613 -83.344582 36 36852ft 518kts
18-Apr-18 12:35 40.551055 -83.213747 36 36858ft 518kts
18-Apr-18 12:36 40.654069 -83.081595 36 36860ft 519kts
18-Apr-18 12:37 40.756517 -82.949539 35 36863ft 516kts
18-Apr-18 12:38 40.858076 -82.818058 35 36874ft 511kts
18-Apr-18 12:39 40.959113 -82.686697 35 36875ft 512kts
18-Apr-18 12:40 41.060136 -82.554692 34 36876ft 512kts
18-Apr-18 12:41 41.156749 -82.427929 33 36907ft 511kts
18-Apr-18 12:42 41.257164 -82.295599 34 36913ft 513kts
18-Apr-18 12:43 41.357691 -82.162825 31 36915ft 509kts
18-Apr-18 12:44 41.470107 -82.058154 22 36916ft 495kts
18-Apr-18 12:45 41.582932 -81.954152 23 36924ft 495kts
18-Apr-18 12:46 41.695077 -81.849773 22 36892ft 480kts
18-Apr-18 12:47 41.800522 -81.751366 22 35670ft 460kts
18-Apr-18 12:48 41.905048 -81.653417 22 33492ft 465kts
18-Apr-18 12:49 42.010634 -81.554001 23 31319ft 468kts
18-Apr-18 12:50 42.116675 -81.453728 24 29149ft 469kts
18-Apr-18 12:51 42.221083 -81.354555 24 27537ft 457kts
18-Apr-18 12:52 42.322278 -81.258188 26 24904ft 456kts
18-Apr-18 12:53 42.428308 -81.156721 27 21416ft 481kts
18-Apr-18 12:54 42.528477 -81.060000 27 17544ft 384kts
18-Apr-18 12:55 42.615129 -80.976702 27 16728ft 382kts
18-Apr-18 12:56 42.698940 -80.895569 27 15225ft 378kts
18-Apr-18 12:57 42.785355 -80.829374 21 13505ft 370kts
18-Apr-18 12:58 42.861906 -80.772535 27 12568ft 350kts
18-Apr-18 12:59 42.941454 -80.712997 21 11769ft 326kts
18-Apr-18 13:00 43.019527 -80.654511 21 10680ft 313kts
18-Apr-18 13:01 43.079766 -80.591609 59 8963ft 296kts
18-Apr-18 13:02 43.111828 -80.493425 58 8349ft 283kts
18-Apr-18 13:03 43.143812 -80.396940 63 7510ft 282kts
18-Apr-18 13:04 43.175320 -80.301474 64 6664ft 279kts
18-Apr-18 13:05 43.205698 -80.209072 63 5023ft 265kts
18-Apr-18 13:06 43.217442 -80.123615 105 3076ft 206kts
18-Apr-18 13:07 43.204790 -80.054517 104 2439ft 182kts
18-Apr-18 13:08 43.190700 -79.995818 109 1334ft 150kts
18-Apr-18 13:09 43.178079 -79.942482 108 778ft 135kts
18-Apr-18 13:10 43.172098 -79.917455 34 748ft 16kts
18-Apr-18 13:11 43.173611 -79.923597 279 763ft 23kts
18-Apr-18 13:12 43.170237 -79.928427 153 776ft 12kts
18-Apr-18 13:13 43.166347 -79.925492 152 770ft 19kts
18-Apr-18 13:14 43.165296 -79.929289 229 771ft 12kts
18-Apr-18 13:15 43.165175 -79.929488 230 771ft 0kts
18-Apr-18 13:16 43.165175 -79.929488 230 771ft 0kts
18-Apr-18 13:17 43.165175 -79.929488 230 771ft 0kts
18-Apr-18 13:18 43.165175 -79.929488 230 771ft 0kts

Navigation Log

Ident Type
Flight plan parsing failed, navigation log unavailable